sensor_id;sensor_type;location;lat;lon;timestamp;P1;durP1;ratioP1;P2;durP2;ratioP2
7527;SDS011;3805;49.006;8.514;2024-01-06T00:02:30;5.80;;;5.13;;
7527;SDS011;3805;49.006;8.514;2024-01-06T00:05:19;6.00;;;4.70;;
7527;SDS011;3805;49.006;8.514;2024-01-06T00:08:07;7.00;;;5.17;;
7527;SDS011;3805;49.006;8.514;2024-01-06T00:10:57;6.50;;;4.30;;
7527;SDS011;3805;49.006;8.514;2024-01-06T00:13:46;6.60;;;4.57;;
7527;SDS011;3805;49.006;8.514;2024-01-06T00:16:34;7.40;;;4.83;;
7527;SDS011;3805;49.006;8.514;2024-01-06T00:19:23;4.40;;;4.00;;
7527;SDS011;3805;49.006;8.514;2024-01-06T00:22:11;8.17;;;4.53;;
7527;SDS011;3805;49.006;8.514;2024-01-06T00:25:00;6.63;;;4.27;;
7527;SDS011;3805;49.006;8.514;2024-01-06T00:27:50;4.50;;;4.07;;
7527;SDS011;3805;49.006;8.514;2024-01-06T00:30:39;7.87;;;4.67;;
7527;SDS011;3805;49.006;8.514;2024-01-06T00:33:28;7.77;;;4.47;;
7527;SDS011;3805;49.006;8.514;2024-01-06T00:36:16;8.50;;;4.40;;
7527;SDS011;3805;49.006;8.514;2024-01-06T00:39:05;4.20;;;3.77;;
7527;SDS011;3805;49.006;8.514;2024-01-06T00:41:55;4.30;;;4.00;;
7527;SDS011;3805;49.006;8.514;2024-01-06T00:44:45;13.33;;;4.83;;
7527;SDS011;3805;49.006;8.514;2024-01-06T00:47:34;6.47;;;3.73;;
7527;SDS011;3805;49.006;8.514;2024-01-06T00:50:22;7.20;;;3.57;;
7527;SDS011;3805;49.006;8.514;2024-01-06T00:53:11;6.37;;;3.63;;
7527;SDS011;3805;49.006;8.514;2024-01-06T00:56:00;4.40;;;3.60;;
7527;SDS011;3805;49.006;8.514;2024-01-06T00:58:48;4.30;;;4.00;;
7527;SDS011;3805;49.006;8.514;2024-01-06T01:01:38;4.80;;;3.87;;
7527;SDS011;3805;49.006;8.514;2024-01-06T01:04:27;4.43;;;3.30;;
7527;SDS011;3805;49.006;8.514;2024-01-06T01:07:16;7.10;;;3.87;;
7527;SDS011;3805;49.006;8.514;2024-01-06T01:10:04;4.37;;;3.90;;
7527;SDS011;3805;49.006;8.514;2024-01-06T01:12:54;4.33;;;3.87;;
7527;SDS011;3805;49.006;8.514;2024-01-06T01:15:42;6.10;;;3.63;;
7527;SDS011;3805;49.006;8.514;2024-01-06T01:18:32;6.03;;;5.40;;
7527;SDS011;3805;49.006;8.514;2024-01-06T01:21:21;4.20;;;3.87;;
7527;SDS011;3805;49.006;8.514;2024-01-06T01:24:10;4.37;;;4.00;;
7527;SDS011;3805;49.006;8.514;2024-01-06T01:26:58;6.43;;;4.43;;
7527;SDS011;3805;49.006;8.514;2024-01-06T01:29:47;5.80;;;3.93;;
7527;SDS011;3805;49.006;8.514;2024-01-06T01:32:40;4.97;;;4.00;;
7527;SDS011;3805;49.006;8.514;2024-01-06T01:35:30;6.33;;;4.83;;
7527;SDS011;3805;49.006;8.514;2024-01-06T01:38:18;6.47;;;4.20;;
7527;SDS011;3805;49.006;8.514;2024-01-06T01:41:07;7.03;;;3.53;;
7527;SDS011;3805;49.006;8.514;2024-01-06T01:43:56;6.97;;;4.57;;
7527;SDS011;3805;49.006;8.514;2024-01-06T01:46:46;4.10;;;3.70;;
7527;SDS011;3805;49.006;8.514;2024-01-06T01:49:35;6.37;;;4.47;;
7527;SDS011;3805;49.006;8.514;2024-01-06T01:52:25;3.43;;;2.97;;
7527;SDS011;3805;49.006;8.514;2024-01-06T01:55:14;5.20;;;3.50;;
7527;SDS011;3805;49.006;8.514;2024-01-06T01:58:02;5.93;;;3.97;;
7527;SDS011;3805;49.006;8.514;2024-01-06T02:00:51;5.37;;;3.40;;
7527;SDS011;3805;49.006;8.514;2024-01-06T02:03:41;12.87;;;4.03;;
7527;SDS011;3805;49.006;8.514;2024-01-06T02:06:30;4.60;;;4.20;;
7527;SDS011;3805;49.006;8.514;2024-01-06T02:09:20;4.00;;;3.70;;
7527;SDS011;3805;49.006;8.514;2024-01-06T02:12:10;4.50;;;3.70;;
7527;SDS011;3805;49.006;8.514;2024-01-06T02:14:59;4.60;;;3.87;;
7527;SDS011;3805;49.006;8.514;2024-01-06T02:17:47;5.30;;;3.90;;
7527;SDS011;3805;49.006;8.514;2024-01-06T02:20:36;4.70;;;3.13;;
7527;SDS011;3805;49.006;8.514;2024-01-06T02:23:26;4.40;;;3.80;;
7527;SDS011;3805;49.006;8.514;2024-01-06T02:26:15;4.03;;;3.40;;
7527;SDS011;3805;49.006;8.514;2024-01-06T02:29:04;4.97;;;3.87;;
7527;SDS011;3805;49.006;8.514;2024-01-06T02:31:53;4.83;;;3.60;;
7527;SDS011;3805;49.006;8.514;2024-01-06T02:34:41;9.10;;;3.83;;
7527;SDS011;3805;49.006;8.514;2024-01-06T02:37:30;7.90;;;4.30;;
7527;SDS011;3805;49.006;8.514;2024-01-06T02:40:20;6.20;;;3.57;;
7527;SDS011;3805;49.006;8.514;2024-01-06T02:43:09;7.60;;;3.80;;
7527;SDS011;3805;49.006;8.514;2024-01-06T02:45:57;3.33;;;3.13;;
7527;SDS011;3805;49.006;8.514;2024-01-06T02:48:46;7.73;;;3.70;;
7527;SDS011;3805;49.006;8.514;2024-01-06T02:51:35;5.47;;;3.80;;
7527;SDS011;3805;49.006;8.514;2024-01-06T02:54:23;4.57;;;3.57;;
7527;SDS011;3805;49.006;8.514;2024-01-06T02:57:13;4.43;;;3.87;;
7527;SDS011;3805;49.006;8.514;2024-01-06T03:00:03;4.50;;;4.03;;
7527;SDS011;3805;49.006;8.514;2024-01-06T03:02:52;4.33;;;3.93;;
7527;SDS011;3805;49.006;8.514;2024-01-06T03:05:40;10.20;;;4.70;;
7527;SDS011;3805;49.006;8.514;2024-01-06T03:08:29;8.10;;;3.60;;
7527;SDS011;3805;49.006;8.514;2024-01-06T03:11:18;8.17;;;4.57;;
7527;SDS011;3805;49.006;8.514;2024-01-06T03:14:08;8.57;;;3.90;;
7527;SDS011;3805;49.006;8.514;2024-01-06T03:16:56;4.80;;;3.80;;
7527;SDS011;3805;49.006;8.514;2024-01-06T03:19:45;7.10;;;3.40;;
7527;SDS011;3805;49.006;8.514;2024-01-06T03:22:34;6.53;;;5.00;;
7527;SDS011;3805;49.006;8.514;2024-01-06T03:25:22;3.80;;;3.47;;
7527;SDS011;3805;49.006;8.514;2024-01-06T03:28:11;4.03;;;3.67;;
7527;SDS011;3805;49.006;8.514;2024-01-06T03:31:01;5.17;;;3.13;;
7527;SDS011;3805;49.006;8.514;2024-01-06T03:33:50;4.13;;;3.70;;
7527;SDS011;3805;49.006;8.514;2024-01-06T03:36:40;4.60;;;3.27;;
7527;SDS011;3805;49.006;8.514;2024-01-06T03:39:29;4.20;;;3.60;;
7527;SDS011;3805;49.006;8.514;2024-01-06T03:42:18;5.90;;;3.43;;
7527;SDS011;3805;49.006;8.514;2024-01-06T03:45:09;3.50;;;3.20;;
7527;SDS011;3805;49.006;8.514;2024-01-06T03:47:59;6.07;;;4.00;;
7527;SDS011;3805;49.006;8.514;2024-01-06T03:50:47;6.30;;;3.33;;
7527;SDS011;3805;49.006;8.514;2024-01-06T03:53:36;4.80;;;4.40;;
7527;SDS011;3805;49.006;8.514;2024-01-06T03:56:24;5.23;;;3.87;;
7527;SDS011;3805;49.006;8.514;2024-01-06T03:59:13;8.67;;;3.63;;
7527;SDS011;3805;49.006;8.514;2024-01-06T04:02:01;10.83;;;4.83;;
7527;SDS011;3805;49.006;8.514;2024-01-06T04:04:51;14.70;;;4.63;;
7527;SDS011;3805;49.006;8.514;2024-01-06T04:07:40;7.70;;;4.20;;
7527;SDS011;3805;49.006;8.514;2024-01-06T04:10:28;7.03;;;4.03;;
7527;SDS011;3805;49.006;8.514;2024-01-06T04:13:17;5.17;;;3.50;;
7527;SDS011;3805;49.006;8.514;2024-01-06T04:16:06;5.87;;;3.80;;
7527;SDS011;3805;49.006;8.514;2024-01-06T04:18:54;4.13;;;3.57;;
7527;SDS011;3805;49.006;8.514;2024-01-06T04:21:45;6.07;;;3.83;;
7527;SDS011;3805;49.006;8.514;2024-01-06T04:24:34;4.30;;;3.90;;
7527;SDS011;3805;49.006;8.514;2024-01-06T04:27:24;4.73;;;4.20;;
7527;SDS011;3805;49.006;8.514;2024-01-06T04:30:13;6.10;;;3.93;;
7527;SDS011;3805;49.006;8.514;2024-01-06T04:33:02;5.90;;;5.40;;
7527;SDS011;3805;49.006;8.514;2024-01-06T04:35:51;8.70;;;4.43;;
7527;SDS011;3805;49.006;8.514;2024-01-06T04:38:40;6.57;;;4.13;;
7527;SDS011;3805;49.006;8.514;2024-01-06T04:41:29;4.13;;;3.33;;
7527;SDS011;3805;49.006;8.514;2024-01-06T04:44:19;5.43;;;4.97;;
7527;SDS011;3805;49.006;8.514;2024-01-06T04:47:09;12.40;;;3.90;;
7527;SDS011;3805;49.006;8.514;2024-01-06T04:49:57;4.63;;;4.33;;
7527;SDS011;3805;49.006;8.514;2024-01-06T04:52:46;4.73;;;4.33;;
7527;SDS011;3805;49.006;8.514;2024-01-06T04:55:36;5.30;;;4.40;;
7527;SDS011;3805;49.006;8.514;2024-01-06T04:58:24;4.30;;;3.90;;
7527;SDS011;3805;49.006;8.514;2024-01-06T05:01:13;5.20;;;4.80;;
7527;SDS011;3805;49.006;8.514;2024-01-06T05:04:02;7.00;;;4.03;;
7527;SDS011;3805;49.006;8.514;2024-01-06T05:06:51;4.53;;;4.13;;
7527;SDS011;3805;49.006;8.514;2024-01-06T05:09:40;5.97;;;4.40;;
7527;SDS011;3805;49.006;8.514;2024-01-06T05:12:30;4.60;;;4.20;;
7527;SDS011;3805;49.006;8.514;2024-01-06T05:15:19;4.83;;;4.43;;
7527;SDS011;3805;49.006;8.514;2024-01-06T05:18:07;10.33;;;4.13;;
7527;SDS011;3805;49.006;8.514;2024-01-06T05:20:56;5.27;;;4.77;;
7527;SDS011;3805;49.006;8.514;2024-01-06T05:23:45;4.77;;;4.33;;
7527;SDS011;3805;49.006;8.514;2024-01-06T05:26:33;7.23;;;3.80;;
7527;SDS011;3805;49.006;8.514;2024-01-06T05:29:23;6.90;;;4.27;;
7527;SDS011;3805;49.006;8.514;2024-01-06T05:32:13;5.80;;;4.57;;
7527;SDS011;3805;49.006;8.514;2024-01-06T05:35:01;6.03;;;3.77;;
7527;SDS011;3805;49.006;8.514;2024-01-06T05:37:50;5.30;;;3.73;;
7527;SDS011;3805;49.006;8.514;2024-01-06T05:40:39;5.30;;;4.80;;
7527;SDS011;3805;49.006;8.514;2024-01-06T05:43:28;5.80;;;5.07;;
7527;SDS011;3805;49.006;8.514;2024-01-06T05:46:21;3.90;;;3.60;;
7527;SDS011;3805;49.006;8.514;2024-01-06T05:49:10;7.30;;;3.60;;
7527;SDS011;3805;49.006;8.514;2024-01-06T05:51:59;4.63;;;3.63;;
7527;SDS011;3805;49.006;8.514;2024-01-06T05:54:47;6.83;;;3.60;;
7527;SDS011;3805;49.006;8.514;2024-01-06T05:57:36;4.70;;;4.20;;
7527;SDS011;3805;49.006;8.514;2024-01-06T06:00:24;5.57;;;4.70;;
7527;SDS011;3805;49.006;8.514;2024-01-06T06:03:14;6.20;;;3.40;;
7527;SDS011;3805;49.006;8.514;2024-01-06T06:06:03;4.80;;;4.40;;
7527;SDS011;3805;49.006;8.514;2024-01-06T06:08:52;10.93;;;4.20;;
7527;SDS011;3805;49.006;8.514;2024-01-06T06:11:41;9.27;;;4.43;;
7527;SDS011;3805;49.006;8.514;2024-01-06T06:14:30;7.00;;;4.33;;
7527;SDS011;3805;49.006;8.514;2024-01-06T06:17:18;7.07;;;5.33;;
7527;SDS011;3805;49.006;8.514;2024-01-06T06:20:08;6.17;;;4.57;;
7527;SDS011;3805;49.006;8.514;2024-01-06T06:22:57;4.83;;;4.53;;
7527;SDS011;3805;49.006;8.514;2024-01-06T06:25:46;3.50;;;3.20;;
7527;SDS011;3805;49.006;8.514;2024-01-06T06:28:34;4.80;;;3.37;;
7527;SDS011;3805;49.006;8.514;2024-01-06T06:31:23;4.83;;;4.27;;
7527;SDS011;3805;49.006;8.514;2024-01-06T06:34:12;4.90;;;4.47;;
7527;SDS011;3805;49.006;8.514;2024-01-06T06:37:04;6.70;;;3.80;;
7527;SDS011;3805;49.006;8.514;2024-01-06T06:39:53;4.60;;;4.30;;
7527;SDS011;3805;49.006;8.514;2024-01-06T06:42:42;5.77;;;5.20;;
7527;SDS011;3805;49.006;8.514;2024-01-06T06:45:30;4.10;;;3.80;;
7527;SDS011;3805;49.006;8.514;2024-01-06T06:48:19;5.27;;;4.20;;
7527;SDS011;3805;49.006;8.514;2024-01-06T06:51:07;4.87;;;4.40;;
7527;SDS011;3805;49.006;8.514;2024-01-06T06:53:59;12.17;;;4.03;;
7527;SDS011;3805;49.006;8.514;2024-01-06T06:56:50;7.40;;;4.63;;
7527;SDS011;3805;49.006;8.514;2024-01-06T06:59:39;4.93;;;3.77;;
7527;SDS011;3805;49.006;8.514;2024-01-06T07:02:27;4.93;;;4.50;;
7527;SDS011;3805;49.006;8.514;2024-01-06T07:05:16;7.20;;;4.30;;
7527;SDS011;3805;49.006;8.514;2024-01-06T07:08:05;4.47;;;4.07;;
7527;SDS011;3805;49.006;8.514;2024-01-06T07:10:55;7.80;;;5.03;;
7527;SDS011;3805;49.006;8.514;2024-01-06T07:13:44;6.47;;;4.30;;
7527;SDS011;3805;49.006;8.514;2024-01-06T07:16:33;4.03;;;3.73;;
7527;SDS011;3805;49.006;8.514;2024-01-06T07:19:22;5.90;;;3.70;;
7527;SDS011;3805;49.006;8.514;2024-01-06T07:22:10;6.57;;;4.90;;
7527;SDS011;3805;49.006;8.514;2024-01-06T07:24:59;6.20;;;4.03;;
7527;SDS011;3805;49.006;8.514;2024-01-06T07:27:49;6.90;;;4.87;;
7527;SDS011;3805;49.006;8.514;2024-01-06T07:30:41;4.43;;;4.07;;
7527;SDS011;3805;49.006;8.514;2024-01-06T07:33:31;6.83;;;4.80;;
7527;SDS011;3805;49.006;8.514;2024-01-06T07:36:20;4.33;;;3.93;;
7527;SDS011;3805;49.006;8.514;2024-01-06T07:39:08;5.47;;;4.13;;
7527;SDS011;3805;49.006;8.514;2024-01-06T07:41:57;5.70;;;5.20;;
7527;SDS011;3805;49.006;8.514;2024-01-06T07:44:47;6.40;;;5.80;;
7527;SDS011;3805;49.006;8.514;2024-01-06T07:47:35;5.90;;;3.90;;
7527;SDS011;3805;49.006;8.514;2024-01-06T07:50:25;5.83;;;5.03;;
7527;SDS011;3805;49.006;8.514;2024-01-06T07:53:15;7.87;;;5.30;;
7527;SDS011;3805;49.006;8.514;2024-01-06T07:56:04;5.07;;;4.13;;
7527;SDS011;3805;49.006;8.514;2024-01-06T07:58:53;6.70;;;5.90;;
7527;SDS011;3805;49.006;8.514;2024-01-06T08:01:43;5.40;;;4.90;;
7527;SDS011;3805;49.006;8.514;2024-01-06T08:04:31;7.70;;;5.10;;
7527;SDS011;3805;49.006;8.514;2024-01-06T08:07:20;14.47;;;8.73;;
7527;SDS011;3805;49.006;8.514;2024-01-06T08:10:09;8.13;;;5.50;;
7527;SDS011;3805;49.006;8.514;2024-01-06T08:12:58;6.83;;;5.53;;
7527;SDS011;3805;49.006;8.514;2024-01-06T08:15:46;6.23;;;5.40;;
7527;SDS011;3805;49.006;8.514;2024-01-06T08:18:37;7.70;;;5.73;;
7527;SDS011;3805;49.006;8.514;2024-01-06T08:21:25;6.17;;;5.47;;
7527;SDS011;3805;49.006;8.514;2024-01-06T08:24:14;8.03;;;6.17;;
7527;SDS011;3805;49.006;8.514;2024-01-06T08:27:03;6.17;;;5.60;;
7527;SDS011;3805;49.006;8.514;2024-01-06T08:29:53;6.30;;;5.67;;
7527;SDS011;3805;49.006;8.514;2024-01-06T08:32:42;8.83;;;5.83;;
7527;SDS011;3805;49.006;8.514;2024-01-06T08:35:32;5.80;;;5.30;;
7527;SDS011;3805;49.006;8.514;2024-01-06T08:38:20;6.13;;;5.63;;
7527;SDS011;3805;49.006;8.514;2024-01-06T08:41:09;6.03;;;5.07;;
7527;SDS011;3805;49.006;8.514;2024-01-06T08:43:58;5.30;;;4.80;;
7527;SDS011;3805;49.006;8.514;2024-01-06T08:46:46;5.10;;;4.23;;
7527;SDS011;3805;49.006;8.514;2024-01-06T08:49:35;9.27;;;5.67;;
7527;SDS011;3805;49.006;8.514;2024-01-06T08:52:25;6.70;;;5.83;;
7527;SDS011;3805;49.006;8.514;2024-01-06T08:55:13;6.70;;;5.70;;
7527;SDS011;3805;49.006;8.514;2024-01-06T08:58:03;5.40;;;4.90;;
7527;SDS011;3805;49.006;8.514;2024-01-06T09:00:52;6.03;;;5.60;;
7527;SDS011;3805;49.006;8.514;2024-01-06T09:03:41;12.53;;;6.30;;
7527;SDS011;3805;49.006;8.514;2024-01-06T09:06:30;7.27;;;6.50;;
7527;SDS011;3805;49.006;8.514;2024-01-06T09:09:20;6.93;;;5.77;;
7527;SDS011;3805;49.006;8.514;2024-01-06T09:12:09;10.10;;;6.70;;
7527;SDS011;3805;49.006;8.514;2024-01-06T09:14:57;8.30;;;5.47;;
7527;SDS011;3805;49.006;8.514;2024-01-06T09:17:46;7.70;;;6.07;;
7527;SDS011;3805;49.006;8.514;2024-01-06T09:20:35;6.77;;;6.10;;
7527;SDS011;3805;49.006;8.514;2024-01-06T09:23:25;9.20;;;6.90;;
7527;SDS011;3805;49.006;8.514;2024-01-06T09:26:15;8.83;;;7.20;;
7527;SDS011;3805;49.006;8.514;2024-01-06T09:29:04;9.40;;;6.97;;
7527;SDS011;3805;49.006;8.514;2024-01-06T09:31:53;10.73;;;8.13;;
7527;SDS011;3805;49.006;8.514;2024-01-06T09:34:41;8.60;;;7.30;;
7527;SDS011;3805;49.006;8.514;2024-01-06T09:37:30;7.40;;;6.30;;
7527;SDS011;3805;49.006;8.514;2024-01-06T09:40:21;9.60;;;7.40;;
7527;SDS011;3805;49.006;8.514;2024-01-06T09:43:11;7.53;;;6.13;;
7527;SDS011;3805;49.006;8.514;2024-01-06T09:46:02;8.90;;;6.20;;
7527;SDS011;3805;49.006;8.514;2024-01-06T09:48:55;7.90;;;7.10;;
7527;SDS011;3805;49.006;8.514;2024-01-06T09:51:45;8.83;;;7.70;;
7527;SDS011;3805;49.006;8.514;2024-01-06T09:54:38;8.23;;;7.40;;
7527;SDS011;3805;49.006;8.514;2024-01-06T09:57:29;8.63;;;7.00;;
7527;SDS011;3805;49.006;8.514;2024-01-06T10:00:20;11.30;;;6.87;;
7527;SDS011;3805;49.006;8.514;2024-01-06T10:03:09;9.03;;;7.50;;
7527;SDS011;3805;49.006;8.514;2024-01-06T10:05:59;8.50;;;7.10;;
7527;SDS011;3805;49.006;8.514;2024-01-06T10:08:50;8.17;;;7.37;;
7527;SDS011;3805;49.006;8.514;2024-01-06T10:11:39;10.93;;;8.17;;
7527;SDS011;3805;49.006;8.514;2024-01-06T10:14:29;10.23;;;7.53;;
7527;SDS011;3805;49.006;8.514;2024-01-06T10:17:18;11.47;;;7.30;;
7527;SDS011;3805;49.006;8.514;2024-01-06T10:20:08;12.60;;;7.00;;
7527;SDS011;3805;49.006;8.514;2024-01-06T10:22:57;7.27;;;6.67;;
7527;SDS011;3805;49.006;8.514;2024-01-06T10:25:52;7.73;;;6.97;;
7527;SDS011;3805;49.006;8.514;2024-01-06T10:28:45;8.60;;;7.67;;
7527;SDS011;3805;49.006;8.514;2024-01-06T10:31:33;10.13;;;6.73;;
7527;SDS011;3805;49.006;8.514;2024-01-06T10:34:23;8.77;;;7.50;;
7527;SDS011;3805;49.006;8.514;2024-01-06T10:37:12;12.23;;;6.80;;
7527;SDS011;3805;49.006;8.514;2024-01-06T10:40:07;10.33;;;8.43;;
7527;SDS011;3805;49.006;8.514;2024-01-06T10:42:57;9.37;;;7.40;;
7527;SDS011;3805;49.006;8.514;2024-01-06T10:45:46;10.43;;;6.97;;
7527;SDS011;3805;49.006;8.514;2024-01-06T10:48:35;9.57;;;6.27;;
7527;SDS011;3805;49.006;8.514;2024-01-06T10:51:27;16.93;;;7.30;;
7527;SDS011;3805;49.006;8.514;2024-01-06T10:54:17;13.17;;;8.00;;
7527;SDS011;3805;49.006;8.514;2024-01-06T10:57:07;7.27;;;6.57;;
7527;SDS011;3805;49.006;8.514;2024-01-06T10:59:55;10.43;;;7.70;;
7527;SDS011;3805;49.006;8.514;2024-01-06T11:02:46;9.83;;;7.37;;
7527;SDS011;3805;49.006;8.514;2024-01-06T11:05:37;8.70;;;6.70;;
7527;SDS011;3805;49.006;8.514;2024-01-06T11:08:27;8.63;;;7.23;;
7527;SDS011;3805;49.006;8.514;2024-01-06T11:11:17;7.20;;;5.93;;
7527;SDS011;3805;49.006;8.514;2024-01-06T11:14:19;7.80;;;6.90;;
7527;SDS011;3805;49.006;8.514;2024-01-06T11:17:09;8.63;;;6.50;;
7527;SDS011;3805;49.006;8.514;2024-01-06T11:20:04;7.00;;;6.30;;
7527;SDS011;3805;49.006;8.514;2024-01-06T11:22:53;7.07;;;6.47;;
7527;SDS011;3805;49.006;8.514;2024-01-06T11:25:44;6.60;;;6.00;;
7527;SDS011;3805;49.006;8.514;2024-01-06T11:28:38;7.37;;;6.77;;
7527;SDS011;3805;49.006;8.514;2024-01-06T11:31:31;7.40;;;6.70;;
7527;SDS011;3805;49.006;8.514;2024-01-06T11:34:20;6.50;;;5.90;;
7527;SDS011;3805;49.006;8.514;2024-01-06T11:37:11;6.00;;;5.40;;
7527;SDS011;3805;49.006;8.514;2024-01-06T11:40:01;8.43;;;7.33;;
7527;SDS011;3805;49.006;8.514;2024-01-06T11:42:57;11.10;;;7.83;;
7527;SDS011;3805;49.006;8.514;2024-01-06T11:45:47;8.17;;;6.93;;
7527;SDS011;3805;49.006;8.514;2024-01-06T11:48:37;8.57;;;7.20;;
7527;SDS011;3805;49.006;8.514;2024-01-06T11:51:29;9.80;;;7.73;;
7527;SDS011;3805;49.006;8.514;2024-01-06T11:54:17;10.23;;;9.13;;
7527;SDS011;3805;49.006;8.514;2024-01-06T11:57:10;11.77;;;7.97;;
7527;SDS011;3805;49.006;8.514;2024-01-06T12:00:00;12.43;;;8.37;;
7527;SDS011;3805;49.006;8.514;2024-01-06T12:02:55;9.17;;;7.53;;
7527;SDS011;3805;49.006;8.514;2024-01-06T12:05:44;10.07;;;8.97;;
7527;SDS011;3805;49.006;8.514;2024-01-06T12:08:32;8.57;;;7.73;;
7527;SDS011;3805;49.006;8.514;2024-01-06T12:11:21;8.50;;;7.27;;
7527;SDS011;3805;49.006;8.514;2024-01-06T12:14:10;8.80;;;6.30;;
7527;SDS011;3805;49.006;8.514;2024-01-06T12:17:00;7.60;;;6.90;;
7527;SDS011;3805;49.006;8.514;2024-01-06T12:19:50;6.00;;;5.60;;
7527;SDS011;3805;49.006;8.514;2024-01-06T12:22:39;9.70;;;7.77;;
7527;SDS011;3805;49.006;8.514;2024-01-06T12:25:28;7.03;;;6.43;;
7527;SDS011;3805;49.006;8.514;2024-01-06T12:28:24;8.33;;;7.50;;
7527;SDS011;3805;49.006;8.514;2024-01-06T12:31:15;12.27;;;7.27;;
7527;SDS011;3805;49.006;8.514;2024-01-06T12:34:05;7.67;;;6.93;;
7527;SDS011;3805;49.006;8.514;2024-01-06T12:36:54;7.77;;;7.03;;
7527;SDS011;3805;49.006;8.514;2024-01-06T12:39:43;7.70;;;6.20;;
7527;SDS011;3805;49.006;8.514;2024-01-06T12:42:32;7.50;;;6.80;;
7527;SDS011;3805;49.006;8.514;2024-01-06T12:45:21;9.77;;;7.27;;
7527;SDS011;3805;49.006;8.514;2024-01-06T12:48:09;9.40;;;6.90;;
7527;SDS011;3805;49.006;8.514;2024-01-06T12:51:00;7.37;;;6.40;;
7527;SDS011;3805;49.006;8.514;2024-01-06T12:53:48;8.67;;;7.87;;
7527;SDS011;3805;49.006;8.514;2024-01-06T12:56:37;8.30;;;7.30;;
7527;SDS011;3805;49.006;8.514;2024-01-06T12:59:25;9.27;;;8.20;;
7527;SDS011;3805;49.006;8.514;2024-01-06T13:02:14;8.80;;;7.87;;
7527;SDS011;3805;49.006;8.514;2024-01-06T13:05:03;11.13;;;7.57;;
7527;SDS011;3805;49.006;8.514;2024-01-06T13:07:53;9.07;;;8.17;;
7527;SDS011;3805;49.006;8.514;2024-01-06T13:10:42;10.23;;;8.37;;
7527;SDS011;3805;49.006;8.514;2024-01-06T13:13:31;8.67;;;7.77;;
7527;SDS011;3805;49.006;8.514;2024-01-06T13:16:19;10.60;;;7.80;;
7527;SDS011;3805;49.006;8.514;2024-01-06T13:19:08;18.43;;;11.17;;
7527;SDS011;3805;49.006;8.514;2024-01-06T13:21:57;14.90;;;11.90;;
7527;SDS011;3805;49.006;8.514;2024-01-06T13:24:47;18.70;;;12.60;;
7527;SDS011;3805;49.006;8.514;2024-01-06T13:27:39;9.70;;;8.80;;
7527;SDS011;3805;49.006;8.514;2024-01-06T13:30:28;10.20;;;9.17;;
7527;SDS011;3805;49.006;8.514;2024-01-06T13:33:17;10.83;;;9.43;;
7527;SDS011;3805;49.006;8.514;2024-01-06T13:36:06;14.33;;;8.63;;
7527;SDS011;3805;49.006;8.514;2024-01-06T13:38:55;12.83;;;9.97;;
7527;SDS011;3805;49.006;8.514;2024-01-06T13:41:45;10.50;;;8.87;;
7527;SDS011;3805;49.006;8.514;2024-01-06T13:44:33;9.60;;;8.37;;
7527;SDS011;3805;49.006;8.514;2024-01-06T13:47:22;11.90;;;10.10;;
7527;SDS011;3805;49.006;8.514;2024-01-06T13:50:11;10.80;;;8.80;;
7527;SDS011;3805;49.006;8.514;2024-01-06T13:53:00;9.20;;;8.40;;
7527;SDS011;3805;49.006;8.514;2024-01-06T13:55:50;13.30;;;9.90;;
7527;SDS011;3805;49.006;8.514;2024-01-06T13:58:40;11.30;;;9.10;;
7527;SDS011;3805;49.006;8.514;2024-01-06T14:01:29;12.07;;;9.23;;
7527;SDS011;3805;49.006;8.514;2024-01-06T14:04:18;11.80;;;10.47;;
7527;SDS011;3805;49.006;8.514;2024-01-06T14:07:06;10.90;;;9.67;;
7527;SDS011;3805;49.006;8.514;2024-01-06T14:09:57;11.00;;;9.10;;
7527;SDS011;3805;49.006;8.514;2024-01-06T14:12:45;14.40;;;10.43;;
7527;SDS011;3805;49.006;8.514;2024-01-06T14:15:35;12.03;;;10.50;;
7527;SDS011;3805;49.006;8.514;2024-01-06T14:18:25;20.43;;;11.63;;
7527;SDS011;3805;49.006;8.514;2024-01-06T14:21:14;11.13;;;9.97;;
7527;SDS011;3805;49.006;8.514;2024-01-06T14:24:06;15.27;;;9.93;;
7527;SDS011;3805;49.006;8.514;2024-01-06T14:26:55;12.93;;;10.17;;
7527;SDS011;3805;49.006;8.514;2024-01-06T14:29:53;17.60;;;10.80;;
7527;SDS011;3805;49.006;8.514;2024-01-06T14:32:43;13.03;;;10.80;;
7527;SDS011;3805;49.006;8.514;2024-01-06T14:35:32;19.70;;;10.67;;
7527;SDS011;3805;49.006;8.514;2024-01-06T14:38:21;13.37;;;11.00;;
7527;SDS011;3805;49.006;8.514;2024-01-06T14:41:09;12.43;;;10.00;;
7527;SDS011;3805;49.006;8.514;2024-01-06T14:43:58;12.70;;;10.83;;
7527;SDS011;3805;49.006;8.514;2024-01-06T14:46:47;13.83;;;9.77;;
7527;SDS011;3805;49.006;8.514;2024-01-06T14:49:39;11.63;;;10.43;;
7527;SDS011;3805;49.006;8.514;2024-01-06T14:52:27;14.03;;;10.73;;
7527;SDS011;3805;49.006;8.514;2024-01-06T14:55:16;10.40;;;9.20;;
7527;SDS011;3805;49.006;8.514;2024-01-06T14:58:05;13.50;;;11.33;;
7527;SDS011;3805;49.006;8.514;2024-01-06T15:00:55;17.93;;;11.23;;
7527;SDS011;3805;49.006;8.514;2024-01-06T15:03:44;10.90;;;9.80;;
7527;SDS011;3805;49.006;8.514;2024-01-06T15:06:34;16.43;;;11.60;;
7527;SDS011;3805;49.006;8.514;2024-01-06T15:09:23;14.47;;;11.93;;
7527;SDS011;3805;49.006;8.514;2024-01-06T15:12:13;13.60;;;10.87;;
7527;SDS011;3805;49.006;8.514;2024-01-06T15:15:02;12.60;;;11.30;;
7527;SDS011;3805;49.006;8.514;2024-01-06T15:17:53;17.67;;;11.60;;
7527;SDS011;3805;49.006;8.514;2024-01-06T15:20:41;17.63;;;11.80;;
7527;SDS011;3805;49.006;8.514;2024-01-06T15:23:31;12.83;;;11.37;;
7527;SDS011;3805;49.006;8.514;2024-01-06T15:26:23;13.43;;;11.63;;
7527;SDS011;3805;49.006;8.514;2024-01-06T15:29:12;15.70;;;14.10;;
7527;SDS011;3805;49.006;8.514;2024-01-06T15:32:01;15.23;;;10.90;;
7527;SDS011;3805;49.006;8.514;2024-01-06T15:34:49;15.67;;;11.73;;
7527;SDS011;3805;49.006;8.514;2024-01-06T15:37:38;18.20;;;11.83;;
7527;SDS011;3805;49.006;8.514;2024-01-06T15:40:28;15.90;;;12.10;;
7527;SDS011;3805;49.006;8.514;2024-01-06T15:43:17;16.43;;;13.10;;
7527;SDS011;3805;49.006;8.514;2024-01-06T15:46:05;18.40;;;13.10;;
7527;SDS011;3805;49.006;8.514;2024-01-06T15:48:54;16.30;;;11.03;;
7527;SDS011;3805;49.006;8.514;2024-01-06T15:51:43;15.60;;;12.30;;
7527;SDS011;3805;49.006;8.514;2024-01-06T15:54:31;15.90;;;13.20;;
7527;SDS011;3805;49.006;8.514;2024-01-06T15:57:21;13.97;;;11.13;;
7527;SDS011;3805;49.006;8.514;2024-01-06T16:00:11;13.80;;;11.87;;
7527;SDS011;3805;49.006;8.514;2024-01-06T16:03:00;16.80;;;13.20;;
7527;SDS011;3805;49.006;8.514;2024-01-06T16:05:49;17.20;;;13.50;;
7527;SDS011;3805;49.006;8.514;2024-01-06T16:08:38;15.07;;;13.50;;
7527;SDS011;3805;49.006;8.514;2024-01-06T16:11:26;14.80;;;12.27;;
7527;SDS011;3805;49.006;8.514;2024-01-06T16:14:16;16.93;;;13.80;;
7527;SDS011;3805;49.006;8.514;2024-01-06T16:17:05;15.13;;;12.23;;
7527;SDS011;3805;49.006;8.514;2024-01-06T16:19:54;15.07;;;13.33;;
7527;SDS011;3805;49.006;8.514;2024-01-06T16:22:43;19.60;;;14.70;;
7527;SDS011;3805;49.006;8.514;2024-01-06T16:25:35;21.53;;;15.10;;
7527;SDS011;3805;49.006;8.514;2024-01-06T16:28:25;25.13;;;16.23;;
7527;SDS011;3805;49.006;8.514;2024-01-06T16:31:15;25.63;;;17.23;;
7527;SDS011;3805;49.006;8.514;2024-01-06T16:34:07;22.63;;;17.77;;
7527;SDS011;3805;49.006;8.514;2024-01-06T16:36:56;21.97;;;16.70;;
7527;SDS011;3805;49.006;8.514;2024-01-06T16:39:44;21.47;;;15.43;;
7527;SDS011;3805;49.006;8.514;2024-01-06T16:42:33;20.10;;;15.53;;
7527;SDS011;3805;49.006;8.514;2024-01-06T16:45:22;24.00;;;16.87;;
7527;SDS011;3805;49.006;8.514;2024-01-06T16:48:12;22.73;;;17.03;;
7527;SDS011;3805;49.006;8.514;2024-01-06T16:51:00;20.00;;;15.20;;
7527;SDS011;3805;49.006;8.514;2024-01-06T16:53:49;21.03;;;16.13;;
7527;SDS011;3805;49.006;8.514;2024-01-06T16:56:39;22.17;;;16.10;;
7527;SDS011;3805;49.006;8.514;2024-01-06T16:59:30;21.30;;;13.60;;
7527;SDS011;3805;49.006;8.514;2024-01-06T17:02:19;17.13;;;14.27;;
7527;SDS011;3805;49.006;8.514;2024-01-06T17:05:09;20.50;;;15.03;;
7527;SDS011;3805;49.006;8.514;2024-01-06T17:07:59;17.43;;;13.53;;
7527;SDS011;3805;49.006;8.514;2024-01-06T17:10:47;17.80;;;13.23;;
7527;SDS011;3805;49.006;8.514;2024-01-06T17:13:36;15.90;;;12.03;;
7527;SDS011;3805;49.006;8.514;2024-01-06T17:16:25;19.03;;;14.43;;
7527;SDS011;3805;49.006;8.514;2024-01-06T17:19:14;26.83;;;18.60;;
7527;SDS011;3805;49.006;8.514;2024-01-06T17:22:04;26.10;;;17.13;;
7527;SDS011;3805;49.006;8.514;2024-01-06T17:24:53;17.80;;;15.40;;